Time;durP1;ratioP1;P1;durP2;ratioP2;P2;SDS_P1;SDS_P2;PMS_P1;PMS_P2;Temp;Humidity;BMP_temperature;BMP_pressure;BME280_temperature;BME280_humidity;BME280_pressure;Samples;Min_cycle;Max_cycle;Signal;HPM_P1;HPM_P2
2021/12/12 00:00:31;;;;;;;138.50;123.43;;;4.80;99.80;;;;;;5074137;28;20136;-74
2021/12/12 00:03:03;;;;;;;136.68;121.82;;;4.90;99.80;;;;;;5074404;28;20511;-74
2021/12/12 00:05:38;;;;;;;141.23;123.32;;;4.80;99.80;;;;;;5074171;28;20041;-74
2021/12/12 00:08:08;;;;;;;144.05;125.10;;;4.80;99.70;;;;;;5073820;28;20115;-74
2021/12/12 00:10:38;;;;;;;143.07;123.25;;;4.90;99.80;;;;;;5074075;28;20045;-74
2021/12/12 00:13:10;;;;;;;142.52;124.68;;;4.90;99.70;;;;;;5073888;28;20505;-74
2021/12/12 00:15:37;;;;;;;144.25;123.20;;;4.80;99.80;;;;;;5074296;28;20052;-74
2021/12/12 00:18:04;;;;;;;141.00;123.13;;;4.90;99.80;;;;;;5056634;28;20072;-74
2021/12/12 00:20:32;;;;;;;139.93;123.40;;;4.90;99.80;;;;;;5073727;28;20053;-74
2021/12/12 00:23:00;;;;;;;142.80;124.82;;;4.90;99.70;;;;;;5072293;28;20049;-74
2021/12/12 00:25:33;;;;;;;146.45;126.78;;;4.90;99.70;;;;;;5074021;28;20418;-74
2021/12/12 00:28:01;;;;;;;146.27;127.38;;;4.90;99.70;;;;;;5073752;28;20537;-74
2021/12/12 00:30:28;;;;;;;145.75;127.05;;;5.00;99.70;;;;;;5073753;28;20053;-74
2021/12/12 00:32:55;;;;;;;143.70;125.13;;;5.00;99.60;;;;;;5074081;28;20103;-74
2021/12/12 00:35:24;;;;;;;148.65;132.40;;;5.00;99.60;;;;;;5073660;28;20057;-74
2021/12/12 00:37:58;;;;;;;147.77;127.15;;;5.00;99.60;;;;;;5073398;28;20136;-74
2021/12/12 00:40:29;;;;;;;140.00;124.35;;;5.00;99.60;;;;;;5075221;28;20143;-74
2021/12/12 00:43:01;;;;;;;145.50;124.10;;;5.10;99.60;;;;;;5073417;28;20049;-74
2021/12/12 00:45:29;;;;;;;142.65;123.07;;;5.10;99.60;;;;;;5074858;28;20094;-74
2021/12/12 00:47:57;;;;;;;136.05;121.20;;;5.00;99.50;;;;;;5073184;28;20505;-74
2021/12/12 00:50:28;;;;;;;142.40;125.80;;;5.00;99.60;;;;;;5073493;28;20055;-74
2021/12/12 00:52:55;;;;;;;144.35;124.20;;;5.00;99.60;;;;;;5073363;28;20053;-74
2021/12/12 00:55:22;;;;;;;;;;;5.00;99.60;;;;;;5073595;28;20133;-74
2021/12/12 00:57:53;;;;;;;142.07;120.10;;;5.00;99.60;;;;;;5074762;28;19925;-74
2021/12/12 01:00:25;;;;;;;140.93;125.65;;;5.00;99.70;;;;;;5074454;28;20075;-75
2021/12/12 01:02:53;;;;;;;137.50;122.55;;;5.00;99.70;;;;;;5073150;28;20056;-74
2021/12/12 01:05:20;;;;;;;134.45;119.75;;;5.00;99.70;;;;;;5074463;28;20045;-74
2021/12/12 01:07:49;;;;;;;143.75;123.95;;;5.00;99.70;;;;;;5074440;28;20171;-74
2021/12/12 01:10:22;;;;;;;137.60;120.53;;;4.90;99.60;;;;;;5073290;28;20648;-74
2021/12/12 01:12:50;;;;;;;139.48;122.35;;;5.00;99.70;;;;;;5073044;28;20461;-74
2021/12/12 01:15:25;;;;;;;140.43;124.55;;;4.90;99.60;;;;;;5072854;28;20056;-74
2021/12/12 01:17:57;;;;;;;138.52;123.22;;;4.90;99.60;;;;;;5072879;28;20053;-74
2021/12/12 01:20:30;;;;;;;139.52;124.38;;;4.90;99.60;;;;;;5073178;28;20135;-74
2021/12/12 01:23:02;;;;;;;139.00;121.68;;;5.00;99.70;;;;;;5073459;28;20154;-74
2021/12/12 01:25:32;;;;;;;134.77;118.85;;;5.00;99.60;;;;;;5073143;28;20394;-74
2021/12/12 01:27:59;;;;;;;139.80;124.45;;;5.00;99.60;;;;;;5074035;28;20510;-74
2021/12/12 01:30:29;;;;;;;137.80;122.22;;;5.00;99.60;;;;;;5073063;28;20540;-74
2021/12/12 01:32:57;;;;;;;137.45;122.53;;;5.00;99.60;;;;;;5072584;28;20489;-74
2021/12/12 01:35:26;;;;;;;137.43;122.35;;;5.00;99.70;;;;;;5073684;28;20053;-74
2021/12/12 01:40:47;;;;;;;138.70;120.88;;;5.00;99.60;;;;;;5072598;28;20053;-74
2021/12/12 01:43:21;;;;;;;139.60;122.38;;;5.00;99.70;;;;;;5073999;28;20053;-74
2021/12/12 01:45:53;;;;;;;138.07;123.05;;;5.10;99.70;;;;;;5072239;28;20052;-74
2021/12/12 01:48:25;;;;;;;136.02;121.00;;;5.10;99.70;;;;;;5073242;28;20054;-74
2021/12/12 01:50:55;;;;;;;137.85;122.55;;;5.10;99.70;;;;;;5072919;28;20139;-74
2021/12/12 01:53:26;;;;;;;135.73;121.07;;;5.10;99.60;;;;;;5072661;28;20080;-74
2021/12/12 01:55:58;;;;;;;137.15;121.05;;;5.10;99.60;;;;;;5072030;28;20050;-74
2021/12/12 01:58:29;;;;;;;133.23;118.35;;;5.10;99.70;;;;;;5072102;28;20056;-74
2021/12/12 02:01:01;;;;;;;133.85;119.40;;;5.10;99.70;;;;;;5073699;28;20567;-74
2021/12/12 02:03:32;;;;;;;132.60;117.88;;;5.10;99.70;;;;;;5073896;28;20045;-74
2021/12/12 02:05:59;;;;;;;131.68;117.47;;;5.10;99.70;;;;;;5072646;28;20594;-74
2021/12/12 02:08:29;;;;;;;133.20;118.63;;;5.10;99.70;;;;;;5071964;28;20084;-75
2021/12/12 02:10:58;;;;;;;132.98;118.60;;;5.10;99.70;;;;;;5073843;28;20061;-74
2021/12/12 02:13:27;;;;;;;131.63;117.25;;;5.10;99.70;;;;;;5055347;28;20132;-74
2021/12/12 02:15:59;;;;;;;133.00;118.80;;;5.20;99.80;;;;;;5073472;28;20064;-74
2021/12/12 02:18:33;;;;;;;130.63;116.43;;;5.20;99.70;;;;;;5071674;28;20056;-74
2021/12/12 02:21:11;;;;;;;133.00;118.35;;;5.20;99.80;;;;;;5072182;28;20064;-74
2021/12/12 02:24:05;;;;;;;131.93;114.40;;;5.20;99.80;;;;;;5071689;28;20057;-74
2021/12/12 02:35:13;;;;;;;130.55;116.57;;;5.10;99.70;;;;;;5011964;28;20574;-74
2021/12/12 02:37:41;;;;;;;130.65;115.82;;;5.20;99.80;;;;;;5013695;28;20594;-74
2021/12/12 02:40:13;;;;;;;127.30;113.38;;;5.30;99.80;;;;;;5043754;28;20057;-74
2021/12/12 02:42:42;;;;;;;128.43;114.68;;;5.30;99.90;;;;;;5054955;28;20049;-74
2021/12/12 02:45:10;;;;;;;127.65;113.70;;;5.30;99.80;;;;;;5072220;28;20127;-74
2021/12/12 02:47:38;;;;;;;129.07;115.05;;;5.30;99.80;;;;;;5072718;28;20084;-74
2021/12/12 02:50:13;;;;;;;132.20;117.90;;;5.40;99.90;;;;;;5072824;28;20053;-74
2021/12/12 02:52:42;;;;;;;131.90;117.55;;;5.40;99.80;;;;;;5054607;28;20103;-74
2021/12/12 02:55:17;;;;;;;128.50;114.32;;;5.40;99.80;;;;;;5073282;28;20499;-74
2021/12/12 02:57:44;;;;;;;128.00;114.43;;;5.50;99.70;;;;;;5071194;28;20110;-75
2021/12/12 03:00:13;;;;;;;;;;;5.50;99.70;;;;;;5071964;28;20132;-75
2021/12/12 03:02:45;;;;;;;130.63;115.93;;;5.40;99.70;;;;;;5072077;28;20426;-74
2021/12/12 03:05:15;;;;;;;129.35;115.38;;;5.40;99.70;;;;;;5072989;28;20136;-74
2021/12/12 03:07:44;;;;;;;127.75;113.15;;;5.50;99.70;;;;;;5072438;28;20045;-75
2021/12/12 03:10:15;;;;;;;126.00;110.88;;;5.50;99.60;;;;;;5072899;28;20075;-75
2021/12/12 03:12:42;;;;;;;126.32;112.57;;;5.40;99.60;;;;;;5071494;28;20048;-75
2021/12/12 03:15:11;;;;;;;;;;;5.50;99.60;;;;;;5071728;28;20049;-75
2021/12/12 03:17:41;;;;;;;125.75;111.90;;;5.40;99.60;;;;;;5071326;28;20231;-75
2021/12/12 03:20:12;;;;;;;126.72;113.15;;;5.40;99.70;;;;;;5071120;28;20053;-74
2021/12/12 03:22:39;;;;;;;131.68;117.57;;;5.40;99.60;;;;;;5071215;28;20081;-74
2021/12/12 03:25:07;;;;;;;125.13;111.75;;;5.50;99.70;;;;;;5070940;28;20053;-74
2021/12/12 03:27:37;;;;;;;129.65;115.68;;;5.50;99.70;;;;;;5071173;28;20309;-74
2021/12/12 03:30:07;;;;;;;123.80;110.70;;;5.50;99.70;;;;;;5071193;28;20049;-75
2021/12/12 03:32:34;;;;;;;129.00;114.22;;;5.50;99.60;;;;;;5070960;28;20139;-74
2021/12/12 03:35:01;;;;;;;121.90;109.00;;;5.50;99.60;;;;;;5071020;28;20059;-74
2021/12/12 03:37:32;;;;;;;122.43;109.88;;;5.50;99.60;;;;;;5053989;28;20099;-75
2021/12/12 03:40:01;;;;;;;126.95;113.70;;;5.50;99.60;;;;;;5072747;28;20152;-74
2021/12/12 03:42:31;;;;;;;121.70;109.10;;;5.50;99.70;;;;;;5072180;28;20140;-75
2021/12/12 03:45:01;;;;;;;125.50;112.28;;;5.50;99.70;;;;;;5072774;28;20132;-74
2021/12/12 03:47:31;;;;;;;124.85;110.65;;;5.50;99.70;;;;;;5072177;28;20139;-74
2021/12/12 03:49:59;;;;;;;122.93;110.03;;;5.60;99.70;;;;;;5071296;28;20519;-75
2021/12/12 03:52:27;;;;;;;125.07;111.40;;;5.50;99.70;;;;;;5071285;28;20045;-74
2021/12/12 03:54:58;;;;;;;123.68;110.20;;;5.60;99.80;;;;;;5072681;28;20144;-74
2021/12/12 03:57:25;;;;;;;123.20;109.95;;;5.60;99.80;;;;;;5072264;28;20487;-75
2021/12/12 03:59:52;;;;;;;125.75;112.40;;;5.60;99.80;;;;;;5074410;28;20045;-74
2021/12/12 04:02:20;;;;;;;121.50;108.63;;;5.60;99.80;;;;;;5074375;28;20111;-75
2021/12/12 04:04:49;;;;;;;119.15;106.35;;;5.60;99.80;;;;;;5074492;28;20129;-75
2021/12/12 04:07:20;;;;;;;119.93;107.38;;;5.60;99.80;;;;;;5075017;28;20052;-75
2021/12/12 04:09:48;;;;;;;120.43;107.82;;;5.60;99.90;;;;;;5075828;28;20144;-75
2021/12/12 04:12:18;;;;;;;122.22;109.13;;;5.60;99.80;;;;;;5074227;28;20127;-75
2021/12/12 04:14:46;;;;;;;122.28;109.60;;;5.60;99.90;;;;;;5074082;28;20136;-75
2021/12/12 04:17:15;;;;;;;126.53;113.18;;;5.60;99.90;;;;;;5074197;28;20172;-75
2021/12/12 04:19:45;;;;;;;123.28;110.35;;;5.70;99.90;;;;;;5075356;28;20051;-75
2021/12/12 04:22:13;;;;;;;122.32;109.57;;;5.70;99.90;;;;;;5075335;28;20087;-74
2021/12/12 04:24:42;;;;;;;122.53;109.70;;;5.70;99.90;;;;;;5074024;28;20569;-74
2021/12/12 04:27:11;;;;;;;123.28;110.50;;;5.70;99.80;;;;;;5075280;28;20041;-75
2021/12/12 04:29:40;;;;;;;120.20;107.65;;;5.70;99.90;;;;;;5075583;28;20059;-74
2021/12/12 04:32:11;;;;;;;119.93;107.43;;;5.70;99.80;;;;;;5073783;28;20053;-75
2021/12/12 04:34:42;;;;;;;120.70;108.15;;;5.80;99.90;;;;;;5074053;28;20574;-75
2021/12/12 04:37:13;;;;;;;125.97;112.72;;;5.80;99.90;;;;;;5073661;28;20103;-74
2021/12/12 04:39:46;;;;;;;120.10;108.00;;;5.80;99.90;;;;;;5057043;28;20045;-74
2021/12/12 04:42:16;;;;;;;121.45;109.05;;;5.80;99.90;;;;;;5075255;28;20081;-74
2021/12/12 04:44:47;;;;;;;118.55;106.43;;;5.70;99.90;;;;;;5075200;28;20057;-74
2021/12/12 04:50:10;;;;;;;123.88;111.25;;;5.70;99.90;;;;;;5075052;28;20061;-75
2021/12/12 04:52:46;;;;;;;122.78;110.40;;;5.80;99.90;;;;;;5074653;28;20056;-74
2021/12/12 04:55:21;;;;;;;121.53;109.05;;;5.80;99.90;;;;;;5073487;28;20131;-74
2021/12/12 04:57:55;;;;;;;123.90;111.15;;;5.70;99.90;;;;;;5073945;28;20111;-74
2021/12/12 05:00:30;;;;;;;121.70;109.65;;;5.70;99.90;;;;;;5073273;28;20107;-75
2021/12/12 05:03:06;;;;;;;116.75;105.13;;;5.80;99.90;;;;;;5056763;28;20049;-74
2021/12/12 05:05:37;;;;;;;120.00;107.85;;;5.80;99.90;;;;;;5073396;28;20053;-75
2021/12/12 05:08:10;;;;;;;122.40;110.15;;;5.80;99.90;;;;;;5072311;28;20114;-75
2021/12/12 05:10:42;;;;;;;120.35;108.22;;;5.80;99.90;;;;;;5073303;28;20076;-74
2021/12/12 05:13:17;;;;;;;118.38;106.47;;;5.80;99.90;;;;;;5074905;28;20057;-74
2021/12/12 05:15:48;;;;;;;118.82;106.97;;;5.80;99.90;;;;;;5073019;28;20049;-75
2021/12/12 05:18:22;;;;;;;119.88;107.90;;;5.80;99.90;;;;;;5073230;28;20049;-75
2021/12/12 05:20:54;;;;;;;119.78;107.65;;;5.90;99.90;;;;;;5072775;28;20057;-75
2021/12/12 05:23:27;;;;;;;121.97;109.90;;;5.90;99.90;;;;;;5073163;28;20107;-74
2021/12/12 05:25:57;;;;;;;120.43;108.53;;;5.90;99.90;;;;;;5073350;28;20511;-75
2021/12/12 05:28:31;;;;;;;118.88;107.00;;;5.90;99.90;;;;;;5072888;28;20413;-75
2021/12/12 05:31:00;;;;;;;118.05;106.10;;;5.90;99.90;;;;;;5073096;28;20048;-74
2021/12/12 05:33:29;;;;;;;117.03;105.53;;;6.00;99.90;;;;;;5072823;28;20053;-75
2021/12/12 05:35:56;;;;;;;118.07;106.47;;;6.00;99.90;;;;;;5074327;28;20509;-75
2021/12/12 05:38:26;;;;;;;118.25;106.75;;;6.00;99.90;;;;;;5074191;28;20473;-75
2021/12/12 05:40:54;;;;;;;116.97;105.57;;;6.00;99.90;;;;;;5056321;28;20157;-75
2021/12/12 05:43:21;;;;;;;118.13;106.60;;;6.00;99.90;;;;;;5072607;28;20059;-75
2021/12/12 05:45:51;;;;;;;114.50;103.10;;;6.00;99.90;;;;;;5074020;28;20505;-75
2021/12/12 05:48:20;;;;;;;119.25;107.53;;;6.00;99.90;;;;;;5072620;28;20073;-75
2021/12/12 05:50:47;;;;;;;119.03;107.13;;;6.00;99.90;;;;;;5073055;28;20133;-75
2021/12/12 05:53:15;;;;;;;117.35;105.90;;;6.10;99.90;;;;;;5072665;28;20132;-75
2021/12/12 05:55:47;;;;;;;121.03;109.32;;;6.10;99.90;;;;;;5072677;28;20084;-75
2021/12/12 05:58:17;;;;;;;119.88;108.18;;;6.10;99.90;;;;;;5073581;28;20071;-75
2021/12/12 06:00:49;;;;;;;117.13;105.72;;;6.20;99.90;;;;;;5072264;28;20111;-75
2021/12/12 06:03:18;;;;;;;118.55;106.95;;;6.20;99.90;;;;;;5073759;28;20079;-75
2021/12/12 06:05:46;;;;;;;117.80;106.20;;;6.20;99.90;;;;;;5072528;28;20081;-75
2021/12/12 06:08:15;;;;;;;120.07;108.47;;;6.30;99.90;;;;;;5072311;28;20132;-75
2021/12/12 06:10:46;;;;;;;118.50;106.78;;;6.20;99.90;;;;;;5073597;28;20049;-75
2021/12/12 06:13:16;;;;;;;117.97;106.25;;;6.30;99.90;;;;;;5074159;28;20131;-75
2021/12/12 06:15:45;;;;;;;118.45;106.88;;;6.30;99.90;;;;;;5072343;28;20768;-75
2021/12/12 06:18:13;;;;;;;118.88;107.32;;;6.30;99.90;;;;;;5073434;28;20057;-75
2021/12/12 06:20:41;;;;;;;120.18;108.40;;;6.30;99.90;;;;;;5072391;28;20135;-75
2021/12/12 06:23:09;;;;;;;119.10;107.57;;;6.30;99.90;;;;;;5072131;28;20521;-75
2021/12/12 06:25:38;;;;;;;122.10;110.13;;;6.30;99.90;;;;;;5072215;28;20140;-75
2021/12/12 06:28:10;;;;;;;116.82;105.55;;;6.30;99.90;;;;;;5073081;28;20055;-75
2021/12/12 06:30:38;;;;;;;119.65;107.90;;;6.30;99.90;;;;;;5072165;28;20128;-75
2021/12/12 06:33:06;;;;;;;118.80;107.20;;;6.30;99.90;;;;;;5073329;28;20144;-75
2021/12/12 06:35:34;;;;;;;118.43;106.82;;;6.30;99.90;;;;;;5071833;28;20115;-75
2021/12/12 06:38:02;;;;;;;119.28;107.63;;;6.30;99.90;;;;;;5071655;28;20649;-75
2021/12/12 06:40:30;;;;;;;122.75;111.13;;;6.30;99.90;;;;;;5054927;28;20080;-75
2021/12/12 06:42:59;;;;;;;118.47;106.97;;;6.30;99.90;;;;;;5073037;28;20079;-75
2021/12/12 06:45:27;;;;;;;119.03;107.45;;;6.30;99.90;;;;;;5071680;28;20447;-75
2021/12/12 06:47:55;;;;;;;121.93;110.22;;;6.30;99.90;;;;;;5071639;28;20072;-75
2021/12/12 06:50:25;;;;;;;120.80;109.03;;;6.30;99.90;;;;;;5071525;28;20064;-75
2021/12/12 06:52:52;;;;;;;119.45;107.75;;;6.40;99.90;;;;;;5071890;28;20424;-75
2021/12/12 06:55:20;;;;;;;124.03;112.28;;;6.40;99.90;;;;;;5072774;28;20049;-75
2021/12/12 06:57:48;;;;;;;119.90;108.40;;;6.40;99.90;;;;;;5071131;28;20140;-75
2021/12/12 07:00:20;;;;;;;116.30;105.00;;;6.40;99.90;;;;;;5073152;28;20573;-75
2021/12/12 07:02:49;;;;;;;118.13;106.63;;;6.40;99.90;;;;;;5071544;28;20053;-75
2021/12/12 07:05:21;;;;;;;120.75;109.05;;;6.40;99.90;;;;;;5071870;28;20052;-75
2021/12/12 07:07:50;;;;;;;119.22;107.63;;;6.40;99.90;;;;;;5071205;28;20041;-75
2021/12/12 07:10:20;;;;;;;119.18;107.32;;;6.40;99.90;;;;;;5054923;28;20095;-75
2021/12/12 07:12:53;;;;;;;120.75;109.15;;;6.40;99.90;;;;;;5071233;28;20076;-75
2021/12/12 07:15:21;;;;;;;120.32;108.80;;;6.40;99.90;;;;;;5071452;28;20049;-75
2021/12/12 07:17:52;;;;;;;119.13;107.63;;;6.50;99.90;;;;;;5071192;28;20120;-75
2021/12/12 07:20:20;;;;;;;120.05;108.50;;;6.50;99.90;;;;;;5071168;28;20060;-75
2021/12/12 07:22:47;;;;;;;118.90;107.40;;;6.50;99.90;;;;;;5071104;28;20053;-75
2021/12/12 07:25:15;;;;;;;117.93;106.25;;;6.50;99.90;;;;;;5054561;28;20525;-75
2021/12/12 07:27:42;;;;;;;117.32;105.85;;;6.50;99.90;;;;;;5070678;28;20132;-75
2021/12/12 07:30:10;;;;;;;119.93;108.40;;;6.50;99.90;;;;;;5071110;28;20041;-75
2021/12/12 07:32:38;;;;;;;120.25;108.55;;;6.50;99.90;;;;;;5073456;28;20171;-75
2021/12/12 07:35:08;;;;;;;118.57;107.07;;;6.60;99.90;;;;;;5057948;28;20503;-75
2021/12/12 07:37:36;;;;;;;119.88;108.38;;;6.60;99.90;;;;;;5074391;28;20158;-75
2021/12/12 07:40:05;;;;;;;121.97;110.35;;;6.60;99.90;;;;;;5076130;28;20140;-75
2021/12/12 07:42:32;;;;;;;122.18;110.68;;;6.60;99.90;;;;;;5074420;28;20499;-75
2021/12/12 07:44:59;;;;;;;120.45;108.95;;;6.60;99.90;;;;;;5076093;28;20495;-75
2021/12/12 07:47:28;;;;;;;120.25;108.78;;;6.70;99.90;;;;;;5075929;28;20081;-75
2021/12/12 07:49:56;;;;;;;120.50;109.00;;;6.70;99.90;;;;;;5074700;28;20056;-75
2021/12/12 07:52:27;;;;;;;120.68;109.28;;;6.80;99.90;;;;;;5074408;28;20053;-75
2021/12/12 07:54:55;;;;;;;120.45;109.05;;;6.80;99.90;;;;;;5075410;28;20495;-75
2021/12/12 07:57:26;;;;;;;120.15;108.75;;;6.80;99.90;;;;;;5073586;28;20045;-75
2021/12/12 07:59:54;;;;;;;119.82;108.43;;;6.80;99.90;;;;;;5075514;28;20049;-75
2021/12/12 08:02:23;;;;;;;119.55;108.05;;;6.80;99.90;;;;;;5074272;28;20052;-75
2021/12/12 08:04:51;;;;;;;120.10;108.70;;;6.80;99.90;;;;;;5074340;28;20168;-75
2021/12/12 08:07:20;;;;;;;119.15;107.78;;;6.80;99.90;;;;;;5073471;28;20136;-75
2021/12/12 08:09:50;;;;;;;119.57;108.00;;;6.90;99.90;;;;;;5075573;28;20096;-75
2021/12/12 08:12:19;;;;;;;119.20;107.80;;;6.90;99.90;;;;;;5075693;28;20139;-75
2021/12/12 08:14:49;;;;;;;121.43;109.85;;;6.80;99.90;;;;;;5075740;28;20049;-75
2021/12/12 08:17:16;;;;;;;123.05;111.45;;;6.90;99.90;;;;;;5075208;28;20049;-75
2021/12/12 08:19:44;;;;;;;120.97;109.40;;;6.90;99.90;;;;;;5075211;28;20052;-75
2021/12/12 08:22:12;;;;;;;123.88;112.07;;;6.90;99.90;;;;;;5074057;28;20460;-75
2021/12/12 08:24:41;;;;;;;122.47;110.78;;;6.90;99.90;;;;;;5075558;28;20059;-75
2021/12/12 08:27:10;;;;;;;126.25;114.28;;;6.90;99.90;;;;;;5073747;28;20511;-75
2021/12/12 08:29:38;;;;;;;122.63;110.90;;;6.90;99.90;;;;;;5073849;28;20508;-75
2021/12/12 08:32:07;;;;;;;124.45;112.40;;;7.00;99.90;;;;;;5057082;28;20049;-75
2021/12/12 08:34:35;;;;;;;124.05;112.28;;;7.00;99.90;;;;;;5073967;28;20048;-75
2021/12/12 08:37:05;;;;;;;124.57;112.72;;;7.10;99.90;;;;;;5073702;28;20087;-75
2021/12/12 08:39:32;;;;;;;123.13;111.22;;;7.10;99.90;;;;;;5075086;28;20144;-75
2021/12/12 08:42:01;;;;;;;126.32;113.93;;;7.10;99.90;;;;;;5073069;28;20049;-75
2021/12/12 08:44:30;;;;;;;124.07;112.07;;;7.10;99.90;;;;;;5071250;28;20049;-76
2021/12/12 08:46:59;;;;;;;126.15;114.25;;;7.10;99.90;;;;;;5072372;28;20077;-76
2021/12/12 08:49:29;;;;;;;126.22;114.15;;;7.20;99.90;;;;;;5072321;28;20565;-76
2021/12/12 08:52:00;;;;;;;122.75;111.05;;;7.20;99.90;;;;;;5072628;28;20148;-75
2021/12/12 08:54:29;;;;;;;124.53;112.63;;;7.20;99.90;;;;;;5074524;28;20053;-75
2021/12/12 08:57:03;;;;;;;127.78;115.72;;;7.20;99.90;;;;;;5070594;28;20145;-76
2021/12/12 08:59:35;;;;;;;129.85;117.18;;;7.20;99.90;;;;;;5062508;28;20483;-77
2021/12/12 09:02:12;;;;;;;127.38;115.10;;;7.30;99.90;;;;;;5065205;28;20045;-73
2021/12/12 09:04:46;;;;;;;124.75;112.70;;;7.40;99.90;;;;;;5068323;28;20499;-74
2021/12/12 09:07:16;;;;;;;128.70;116.20;;;7.40;99.90;;;;;;5063148;28;20037;-74
2021/12/12 09:09:49;;;;;;;127.95;115.53;;;7.40;99.90;;;;;;5081351;28;20045;-75
2021/12/12 09:12:23;;;;;;;127.50;115.00;;;7.50;99.90;;;;;;5056108;28;20466;-76
2021/12/12 09:14:58;;;;;;;128.18;115.78;;;7.50;99.90;;;;;;5069254;28;20144;-75
2021/12/12 09:17:29;;;;;;;129.52;116.63;;;7.60;99.90;;;;;;5053399;28;20083;-76
2021/12/12 09:20:05;;;;;;;132.70;119.70;;;7.60;99.90;;;;;;5069223;28;20063;-76
2021/12/12 09:22:35;;;;;;;127.95;115.30;;;7.60;99.90;;;;;;5070565;28;20049;-76
2021/12/12 09:25:06;;;;;;;131.05;118.13;;;7.70;99.90;;;;;;5068618;28;20140;-73
2021/12/12 09:27:41;;;;;;;132.38;119.10;;;7.70;99.90;;;;;;5079698;28;20546;-76
2021/12/12 09:30:12;;;;;;;133.80;120.50;;;7.80;99.90;;;;;;5068418;28;20136;-76
2021/12/12 09:32:45;;;;;;;131.07;118.07;;;7.80;99.90;;;;;;5072803;28;20096;-76
2021/12/12 09:35:19;;;;;;;125.93;113.57;;;7.80;99.90;;;;;;5073498;28;20099;-76
2021/12/12 09:37:53;;;;;;;128.80;116.05;;;7.80;99.90;;;;;;5055839;28;20052;-77
2021/12/12 09:40:29;;;;;;;130.35;117.65;;;7.80;99.90;;;;;;5074959;28;20545;-77
2021/12/12 09:43:20;;;;;;;130.70;117.47;;;7.90;99.90;;;;;;5056668;28;20132;-76
2021/12/12 09:46:20;;;;;;;132.07;119.05;;;7.90;99.90;;;;;;5056411;28;20057;-76
2021/12/12 09:52:23;;;;;;;131.00;117.90;;;8.00;99.90;;;;;;5073262;28;20470;-76
2021/12/12 09:54:56;;;;;;;129.40;116.47;;;8.00;99.90;;;;;;5074182;28;20049;-77
2021/12/12 09:57:27;;;;;;;131.68;118.68;;;8.00;99.90;;;;;;5072544;28;20048;-77
2021/12/12 10:00:07;;;;;;;129.93;117.13;;;8.00;99.90;;;;;;5073207;28;20049;-76
2021/12/12 10:02:54;;;;;;;133.52;120.45;;;8.00;99.90;;;;;;5073455;28;20427;-76
2021/12/12 10:05:31;;;;;;;131.13;118.28;;;8.10;99.90;;;;;;5074604;28;20088;-77
2021/12/12 10:08:07;;;;;;;131.63;118.82;;;8.10;99.90;;;;;;5073116;28;20053;-76
2021/12/12 10:10:37;;;;;;;133.95;121.05;;;8.20;99.90;;;;;;5056093;28;20111;-75
2021/12/12 10:13:17;;;;;;;129.40;116.70;;;8.20;99.90;;;;;;5073795;28;20081;-75
2021/12/12 10:15:52;;;;;;;129.98;117.18;;;8.20;99.90;;;;;;5074860;28;20360;-75
2021/12/12 10:18:30;;;;;;;135.27;122.18;;;8.30;99.90;;;;;;5067708;28;20929;-77
2021/12/12 10:21:04;;;;;;;129.75;117.25;;;8.30;99.90;;;;;;5071312;28;20408;-75
2021/12/12 10:23:53;;;;;;;132.90;120.10;;;8.30;99.90;;;;;;5071387;28;20168;-75
2021/12/12 10:26:25;;;;;;;131.70;118.97;;;8.30;99.90;;;;;;5072758;28;20152;-75
2021/12/12 10:28:57;;;;;;;130.18;117.65;;;8.40;99.90;;;;;;5071716;28;20063;-75
2021/12/12 10:31:28;;;;;;;130.25;117.63;;;8.40;99.90;;;;;;5071177;28;20602;-75
2021/12/12 10:34:01;;;;;;;128.77;116.40;;;8.40;99.90;;;;;;5070982;28;20127;-77
2021/12/12 10:36:33;;;;;;;131.32;118.93;;;8.50;99.90;;;;;;5068108;28;20106;-77
2021/12/12 10:39:06;;;;;;;132.30;119.80;;;8.40;99.90;;;;;;5066193;28;20496;-77
2021/12/12 10:41:38;;;;;;;130.73;118.13;;;8.50;99.90;;;;;;5067476;28;20550;-77
2021/12/12 10:44:10;;;;;;;131.13;118.50;;;8.50;99.90;;;;;;5086282;28;20160;-78
2021/12/12 10:46:44;;;;;;;125.85;113.85;;;8.50;99.90;;;;;;5058698;28;20041;-78
2021/12/12 10:49:23;;;;;;;127.22;115.05;;;8.60;99.90;;;;;;5070565;28;20072;-77
2021/12/12 10:51:56;;;;;;;128.27;116.07;;;8.60;99.90;;;;;;5068125;28;20099;-76
2021/12/12 10:54:29;;;;;;;124.38;112.30;;;8.70;99.90;;;;;;5065272;28;20132;-77
2021/12/12 10:57:01;;;;;;;128.23;116.03;;;8.70;99.90;;;;;;5050975;28;20451;-77
2021/12/12 10:59:32;;;;;;;125.35;113.50;;;8.70;99.90;;;;;;5073153;28;20580;-76
2021/12/12 11:02:03;;;;;;;127.50;115.18;;;8.70;99.90;;;;;;5031532;28;20053;-78
2021/12/12 11:04:43;;;;;;;124.68;112.95;;;8.70;99.90;;;;;;5058217;28;20061;-78
2021/12/12 11:07:17;;;;;;;135.65;123.07;;;8.80;99.90;;;;;;5060810;28;20134;-78
2021/12/12 11:09:50;;;;;;;134.18;121.57;;;8.80;99.90;;;;;;5055419;28;20072;-78
2021/12/12 11:12:24;;;;;;;132.82;120.45;;;8.90;99.90;;;;;;5064231;28;20479;-75
2021/12/12 11:14:57;;;;;;;133.02;120.63;;;8.90;99.90;;;;;;5059366;28;20053;-76
2021/12/12 11:17:28;;;;;;;131.77;119.38;;;8.90;99.90;;;;;;5046434;28;20049;-76
2021/12/12 11:20:01;;;;;;;125.82;113.82;;;8.90;99.90;;;;;;5061185;28;20061;-76
2021/12/12 11:22:33;;;;;;;125.65;113.75;;;8.90;99.90;;;;;;5068203;28;20516;-76
2021/12/12 11:25:07;;;;;;;126.32;114.60;;;9.00;99.90;;;;;;5068333;28;20081;-77
2021/12/12 11:27:37;;;;;;;123.20;111.50;;;9.00;99.90;;;;;;5066895;28;20063;-77
2021/12/12 11:30:10;;;;;;;126.03;114.00;;;9.00;99.90;;;;;;5067882;28;20050;-77
2021/12/12 11:32:38;;;;;;;127.60;115.75;;;9.00;99.90;;;;;;5066163;28;20579;-76
2021/12/12 11:35:13;;;;;;;124.35;112.60;;;9.10;99.90;;;;;;5068586;28;20494;-76
2021/12/12 11:37:49;;;;;;;122.45;110.95;;;9.10;99.90;;;;;;5070358;28;20132;-76
2021/12/12 11:40:21;;;;;;;126.18;114.40;;;9.10;99.90;;;;;;5086905;28;20219;-77
2021/12/12 11:42:52;;;;;;;126.63;114.80;;;9.10;99.90;;;;;;5054639;28;20041;-77
2021/12/12 11:45:25;;;;;;;124.53;112.93;;;9.10;99.90;;;;;;5070063;28;20577;-76
2021/12/12 11:48:13;;;;;;;123.70;112.20;;;9.10;99.90;;;;;;5067483;28;20076;-76
2021/12/12 11:50:47;;;;;;;122.50;111.07;;;9.10;99.90;;;;;;5069118;28;20041;-76
2021/12/12 11:53:19;;;;;;;124.38;112.78;;;9.10;99.90;;;;;;5073290;28;20053;-77
2021/12/12 11:55:51;;;;;;;124.38;112.82;;;9.10;99.90;;;;;;5067692;28;20045;-77
2021/12/12 11:58:27;;;;;;;124.13;112.40;;;9.20;99.90;;;;;;5052193;28;20453;-77
2021/12/12 12:00:58;;;;;;;;;;;9.20;99.90;;;;;;5068659;28;20506;-77
2021/12/12 12:03:34;;;;;;;125.50;113.53;;;9.20;99.90;;;;;;5068567;28;20458;-76
2021/12/12 12:06:17;;;;;;;126.20;114.43;;;9.20;99.90;;;;;;5068980;28;20049;-76
2021/12/12 12:08:58;;;;;;;127.00;114.90;;;9.30;99.90;;;;;;5067570;28;20132;-76
2021/12/12 12:11:39;;;;;;;126.38;114.28;;;9.30;99.90;;;;;;5068138;28;20080;-77
2021/12/12 12:14:10;;;;;;;125.63;113.70;;;9.30;99.90;;;;;;5070589;28;20060;-77
2021/12/12 12:16:49;;;;;;;127.03;114.93;;;9.30;99.90;;;;;;5067194;28;20128;-77
2021/12/12 12:19:26;;;;;;;125.63;113.63;;;9.30;99.90;;;;;;5073252;28;20145;-77
2021/12/12 12:22:09;;;;;;;127.32;115.13;;;9.40;99.90;;;;;;5071359;28;20053;-77
2021/12/12 12:24:44;;;;;;;124.22;112.35;;;9.40;99.90;;;;;;5068631;28;20053;-77
2021/12/12 12:27:15;;;;;;;124.63;112.85;;;9.40;99.90;;;;;;5069983;28;20052;-77
2021/12/12 12:30:20;;;;;;;127.25;115.10;;;9.40;99.90;;;;;;5073252;28;20060;-77
2021/12/12 12:33:21;;;;;;;124.53;112.50;;;9.50;99.90;;;;;;5071591;28;20603;-77
2021/12/12 12:36:21;;;;;;;126.95;114.90;;;9.50;99.90;;;;;;5027240;28;20048;-77
2021/12/12 12:39:46;;;;;;;126.30;114.35;;;9.50;99.90;;;;;;5073481;28;20078;-77
2021/12/12 12:42:55;;;;;;;126.13;114.03;;;9.50;99.90;;;;;;5070637;28;20053;-78
2021/12/12 12:45:55;;;;;;;125.95;113.80;;;9.60;99.90;;;;;;5073618;28;20061;-77
2021/12/12 12:48:59;;;;;;;128.43;116.40;;;9.60;99.90;;;;;;5072217;28;20474;-77
2021/12/12 12:51:57;;;;;;;125.38;113.55;;;9.60;99.90;;;;;;5070401;28;20057;-78
2021/12/12 12:54:29;;;;;;;124.75;112.78;;;9.70;99.90;;;;;;5069793;28;20045;-75
2021/12/12 12:57:21;;;;;;;128.52;116.30;;;9.70;99.90;;;;;;5070695;28;20076;-76
2021/12/12 13:00:11;;;;;;;126.43;114.13;;;9.70;99.90;;;;;;5072593;28;20080;-75